Ruby, New York
Current Conditions -  °F | °C
As of 1:53 PM on Monday 20 Oct 2014 (Local Time) from KPOU Reporting Station
Clear Clear  
Wind Chill: 56°   Ceiling: Unl
Heat Index: 56°   Visibility: 10mi
Dew Point: 34°   Wind: 7mph
Humidity: 44%   Direction: NA
Pressure: 29.99"   Gusts: NA
Location:  42.02°N, 74.02°W
Report Text: KPOU 201753Z VRB06KT 10SM CLR 13/01 A2999 RMK AO2 SLP153 T01330011 10133 20028 58030
Loading
Personal Weather Stations






























Interactive Weather Map
Tropical Storm Tracking
New forecast layout! Learn more

10-Day Weather Forecast

Advertisements
Track Severe Weather on mobile